Time;durP1;ratioP1;P1;durP2;ratioP2;P2;SDS_P1;SDS_P2;PMS_P1;PMS_P2;Temp;Humidity;BMP_temperature;BMP_pressure;BME280_temperature;BME280_humidity;BME280_pressure;Samples;Min_cycle;Max_cycle;Signal;HPM_P1;HPM_P2
2021/01/29 00:00:15;;;;;;;4.40;4.00;;;7.50;99.90;;;;;;4766821;30;20043;-77
2021/01/29 00:02:46;;;;;;;4.20;3.30;;;7.60;99.90;;;;;;4755452;30;20047;-77
2021/01/29 00:05:20;;;;;;;3.50;3.15;;;7.60;99.90;;;;;;4762607;30;20048;-77
2021/01/29 00:07:52;;;;;;;2.97;2.63;;;7.60;99.90;;;;;;4749134;30;20490;-77
2021/01/29 00:10:23;;;;;;;2.75;2.38;;;7.60;99.90;;;;;;4741321;30;20148;-77
2021/01/29 00:12:54;;;;;;;2.42;2.20;;;7.60;99.90;;;;;;4765343;30;20048;-77
2021/01/29 00:15:21;;;;;;;2.83;2.53;;;7.60;99.90;;;;;;4744733;30;20404;-77
2021/01/29 00:17:53;;;;;;;3.70;2.83;;;7.60;99.90;;;;;;4748750;30;20047;-77
2021/01/29 00:20:26;;;;;;;2.83;2.50;;;7.60;99.90;;;;;;4754788;30;20039;-78
2021/01/29 00:22:58;;;;;;;3.72;2.53;;;7.60;99.90;;;;;;4771049;30;20047;-77
2021/01/29 00:25:35;;;;;;;2.45;2.25;;;7.60;99.90;;;;;;4756138;30;20503;-77
2021/01/29 00:28:07;;;;;;;2.30;2.00;;;7.70;99.90;;;;;;4755630;30;20138;-77
2021/01/29 00:30:38;;;;;;;3.40;2.50;;;7.70;99.90;;;;;;4756195;30;20051;-77
2021/01/29 00:33:14;;;;;;;2.80;2.50;;;7.70;99.90;;;;;;4770954;30;20048;-77
2021/01/29 00:35:45;;;;;;;3.17;2.45;;;7.70;99.90;;;;;;4770863;30;20075;-77
2021/01/29 00:38:16;;;;;;;2.97;2.63;;;7.60;99.90;;;;;;4769597;30;20047;-77
2021/01/29 00:40:48;;;;;;;2.92;2.60;;;7.60;99.90;;;;;;4786401;30;20436;-77
2021/01/29 00:43:19;;;;;;;3.08;2.78;;;7.60;99.90;;;;;;4755844;30;20448;-77
2021/01/29 00:45:51;;;;;;;3.10;2.78;;;7.50;99.90;;;;;;4769901;30;20078;-77
2021/01/29 00:48:22;;;;;;;3.47;3.00;;;7.50;99.90;;;;;;4755459;30;20055;-77
2021/01/29 00:50:53;;;;;;;3.08;2.70;;;7.40;99.90;;;;;;4755746;30;20073;-77
2021/01/29 00:53:24;;;;;;;3.17;2.70;;;7.40;99.90;;;;;;4755619;30;20044;-77
2021/01/29 00:55:59;;;;;;;4.00;2.70;;;7.40;99.90;;;;;;4756120;30;20108;-77
2021/01/29 00:58:33;;;;;;;;;;;7.40;99.90;;;;;;4756255;30;20043;-77
2021/01/29 01:01:24;;;;;;;3.08;2.35;;;7.40;99.90;;;;;;4784670;30;20398;-77
2021/01/29 01:03:53;;;;;;;3.13;2.80;;;7.40;99.90;;;;;;4769803;30;20071;-77
2021/01/29 01:06:24;;;;;;;3.60;2.60;;;7.40;99.90;;;;;;4769794;30;20588;-77
2021/01/29 01:09:14;;;;;;;2.97;2.58;;;7.40;99.90;;;;;;4772781;30;20415;-77
2021/01/29 01:11:46;;;;;;;3.53;3.05;;;7.40;99.90;;;;;;4769480;30;20053;-77
2021/01/29 01:14:53;;;;;;;3.42;3.13;;;7.40;99.90;;;;;;4759676;30;20047;-77
2021/01/29 01:17:42;;;;;;;3.10;2.70;;;7.50;99.90;;;;;;4757312;30;20132;-77
2021/01/29 01:20:30;;;;;;;3.40;2.85;;;7.40;99.90;;;;;;4769718;30;20048;-77
2021/01/29 01:23:02;;;;;;;2.63;2.40;;;7.50;99.90;;;;;;4755440;30;20082;-77
2021/01/29 01:25:38;;;;;;;3.33;2.83;;;7.50;99.90;;;;;;4755909;30;20047;-77
2021/01/29 01:28:22;;;;;;;2.95;2.50;;;7.50;99.90;;;;;;4756444;30;20051;-77
2021/01/29 01:31:02;;;;;;;3.22;2.92;;;7.50;99.90;;;;;;4769390;30;20079;-77
2021/01/29 01:33:42;;;;;;;3.00;2.55;;;7.50;99.90;;;;;;4756481;30;20055;-76
2021/01/29 01:36:30;;;;;;;3.00;2.47;;;7.50;99.90;;;;;;4769119;30;20048;-77
2021/01/29 01:39:21;;;;;;;2.67;2.28;;;7.50;99.90;;;;;;4772661;30;20058;-77
2021/01/29 01:41:54;;;;;;;3.33;2.65;;;7.50;99.90;;;;;;4755390;30;20105;-77
2021/01/29 01:44:36;;;;;;;3.17;2.08;;;7.50;99.90;;;;;;4769240;30;20047;-77
2021/01/29 01:47:33;;;;;;;;;;;7.40;99.90;;;;;;4758328;30;20055;-77
2021/01/29 01:50:47;;;;;;;2.42;2.22;;;7.50;99.90;;;;;;4765781;30;19925;-77
2021/01/29 01:53:24;;;;;;;2.63;2.42;;;7.40;99.90;;;;;;4754216;30;20044;-77
2021/01/29 01:56:20;;;;;;;3.33;2.65;;;7.40;99.90;;;;;;4754802;30;20100;-77
2021/01/29 01:59:09;;;;;;;3.17;2.83;;;7.40;99.90;;;;;;4771760;30;20058;-77
2021/01/29 02:01:56;;;;;;;2.60;2.40;;;7.50;99.90;;;;;;4770987;30;20050;-77
2021/01/29 02:04:52;;;;;;;2.28;2.00;;;7.50;99.90;;;;;;4772208;30;20125;-77
2021/01/29 02:07:57;;;;;;;2.60;2.35;;;7.50;99.90;;;;;;4768294;30;20047;-77
2021/01/29 02:10:49;;;;;;;2.75;2.28;;;7.50;99.90;;;;;;4775157;30;20526;-77
2021/01/29 02:13:20;;;;;;;2.33;2.13;;;7.60;99.90;;;;;;4758016;30;20127;-76
2021/01/29 02:16:32;;;;;;;2.92;2.20;;;7.50;99.90;;;;;;4775431;30;20520;-77
2021/01/29 02:19:37;;;;;;;3.65;2.45;;;7.50;99.90;;;;;;4758071;30;20043;-77
2021/01/29 02:22:48;;;;;;;2.58;2.38;;;7.50;99.90;;;;;;4757769;30;20511;-77
2021/01/29 02:26:02;;;;;;;2.78;2.45;;;7.50;99.90;;;;;;4776044;30;20069;-77
2021/01/29 02:29:01;;;;;;;2.58;2.00;;;7.60;99.90;;;;;;4758626;30;20059;-77
2021/01/29 02:31:54;;;;;;;2.40;2.20;;;7.60;99.90;;;;;;4758894;30;20140;-76
2021/01/29 02:34:32;;;;;;;2.97;2.60;;;7.60;99.90;;;;;;4772100;30;20072;-77
2021/01/29 02:37:32;;;;;;;2.78;2.40;;;7.60;99.90;;;;;;4771835;30;20524;-77
2021/01/29 02:40:43;;;;;;;2.63;2.42;;;7.60;99.90;;;;;;4759401;30;20047;-77
2021/01/29 02:43:15;;;;;;;3.33;2.67;;;7.50;99.90;;;;;;4771611;30;20061;-77
2021/01/29 02:46:40;;;;;;;2.63;2.13;;;7.50;99.90;;;;;;4787510;30;20550;-77
2021/01/29 02:49:46;;;;;;;3.83;2.20;;;7.50;99.90;;;;;;4769287;30;20055;-77
2021/01/29 02:53:16;;;;;;;;;;;7.50;99.90;;;;;;4747728;29;20062;-77
2021/01/29 02:56:34;;;;;;;5.65;2.25;;;7.50;99.90;;;;;;4743074;30;20086;-77
2021/01/29 02:59:40;;;;;;;2.38;2.00;;;7.50;99.90;;;;;;4771321;30;20082;-77
2021/01/29 03:02:44;;;;;;;2.60;2.05;;;7.50;99.90;;;;;;4775413;30;20477;-77
2021/01/29 03:05:27;;;;;;;2.33;1.90;;;7.50;99.90;;;;;;4758621;30;20050;-77
2021/01/29 03:08:05;;;;;;;2.03;1.83;;;7.40;99.90;;;;;;4771790;30;20075;-77
2021/01/29 03:11:20;;;;;;;2.30;1.65;;;7.50;99.90;;;;;;4788209;30;20158;-77
2021/01/29 03:14:20;;;;;;;1.40;1.20;;;7.50;99.90;;;;;;4775249;30;20062;-77
2021/01/29 03:17:14;;;;;;;1.50;1.23;;;7.50;99.90;;;;;;4775316;30;20058;-77
2021/01/29 03:20:16;;;;;;;1.80;1.40;;;7.50;99.90;;;;;;4774315;30;20058;-77
2021/01/29 03:23:13;;;;;;;1.50;1.20;;;7.50;99.90;;;;;;4774830;30;20063;-77
2021/01/29 03:26:28;;;;;;;1.08;0.90;;;7.50;99.90;;;;;;4774596;30;20086;-77
2021/01/29 03:29:21;;;;;;;1.20;0.90;;;7.60;99.90;;;;;;4774682;30;20354;-77
2021/01/29 03:32:13;;;;;;;1.05;0.90;;;7.60;99.90;;;;;;4774776;30;20051;-77
2021/01/29 03:35:12;;;;;;;0.93;0.73;;;7.60;99.90;;;;;;4787835;30;20054;-77
2021/01/29 03:38:15;;;;;;;1.63;1.15;;;7.60;99.90;;;;;;4774459;30;20104;-77
2021/01/29 03:41:16;;;;;;;1.30;1.02;;;7.60;99.90;;;;;;4787530;30;20569;-77
2021/01/29 03:44:25;;;;;;;1.10;1.00;;;7.60;99.90;;;;;;4774086;30;20123;-78
2021/01/29 03:47:33;;;;;;;0.93;0.80;;;7.70;99.90;;;;;;4774582;30;20054;-77
2021/01/29 03:50:47;;;;;;;3.58;1.02;;;7.70;99.90;;;;;;4774418;30;20053;-77
2021/01/29 03:53:42;;;;;;;3.20;1.40;;;7.60;99.90;;;;;;4774591;30;20066;-77
2021/01/29 03:56:51;;;;;;;2.78;1.85;;;7.70;99.90;;;;;;4774319;30;20533;-77
2021/01/29 04:00:02;;;;;;;1.92;1.20;;;7.70;99.90;;;;;;4774191;30;20054;-77
2021/01/29 04:03:20;;;;;;;1.70;1.00;;;7.70;99.90;;;;;;4774940;30;20134;-77
2021/01/29 04:06:17;;;;;;;2.95;1.27;;;7.70;99.90;;;;;;4787147;30;20404;-77
2021/01/29 04:09:24;;;;;;;1.48;1.02;;;7.70;99.90;;;;;;4773215;30;20062;-77
2021/01/29 04:12:49;;;;;;;1.45;1.33;;;7.70;99.90;;;;;;4770418;30;20187;-77
2021/01/29 04:15:47;;;;;;;1.50;1.00;;;7.70;99.90;;;;;;4756806;30;20423;-77
2021/01/29 04:18:23;;;;;;;1.95;1.30;;;7.70;99.90;;;;;;4756371;30;20138;-77
2021/01/29 04:21:16;;;;;;;1.75;1.20;;;7.70;99.90;;;;;;4756289;30;20051;-77
2021/01/29 04:24:03;;;;;;;1.77;1.27;;;7.70;99.90;;;;;;4756208;30;20052;-77
2021/01/29 04:26:50;;;;;;;1.30;0.80;;;7.70;99.90;;;;;;4756115;30;20055;-77
2021/01/29 04:29:32;;;;;;;1.48;0.85;;;7.80;99.90;;;;;;4770220;30;20132;-77
2021/01/29 04:32:08;;;;;;;1.52;1.40;;;7.80;99.90;;;;;;4769944;30;20541;-77
2021/01/29 04:34:44;;;;;;;0.75;0.40;;;7.80;99.90;;;;;;4770245;30;20053;-77
2021/01/29 04:37:20;;;;;;;1.38;0.80;;;7.80;99.90;;;;;;4756007;30;20061;-77
2021/01/29 04:39:57;;;;;;;0.98;0.57;;;7.80;99.90;;;;;;4785883;30;20087;-77
2021/01/29 04:42:35;;;;;;;0.63;0.40;;;7.70;99.90;;;;;;4770206;30;20142;-77
2021/01/29 04:45:21;;;;;;;1.55;0.90;;;7.70;99.90;;;;;;4756028;30;20058;-77
2021/01/29 04:48:05;;;;;;;1.55;0.75;;;7.60;99.90;;;;;;4755556;30;20047;-77
2021/01/29 04:50:58;;;;;;;1.10;0.47;;;7.60;99.90;;;;;;4755849;30;20104;-77
2021/01/29 04:53:44;;;;;;;1.02;0.70;;;7.60;99.90;;;;;;4755680;30;20524;-77
2021/01/29 04:56:38;;;;;;;2.20;0.68;;;7.50;99.90;;;;;;4770676;30;20062;-77
2021/01/29 04:59:35;;;;;;;0.80;0.60;;;7.50;99.90;;;;;;4755499;30;20146;-78
2021/01/29 05:02:38;;;;;;;1.27;0.52;;;7.50;99.90;;;;;;4776251;30;20105;-78
2021/01/29 05:06:04;;;;;;;0.93;0.40;;;7.50;99.90;;;;;;4773173;30;20051;-78
2021/01/29 05:09:14;;;;;;;;;;;7.50;99.90;;;;;;4773279;30;20056;-78
2021/01/29 05:12:07;;;;;;;1.02;0.70;;;7.40;99.90;;;;;;4756471;30;19932;-78
2021/01/29 05:15:08;;;;;;;0.95;0.52;;;7.30;99.90;;;;;;4754808;30;20114;-78
2021/01/29 05:18:04;;;;;;;1.13;0.60;;;7.30;99.90;;;;;;4769478;30;20055;-78
2021/01/29 05:20:44;;;;;;;1.38;0.50;;;7.20;99.90;;;;;;4755267;30;20055;-78
2021/01/29 05:23:34;;;;;;;0.77;0.50;;;7.20;99.90;;;;;;4755372;30;20051;-78
2021/01/29 05:26:33;;;;;;;0.65;0.40;;;7.10;99.90;;;;;;4755202;30;20043;-78
2021/01/29 05:29:32;;;;;;;1.60;0.50;;;7.20;99.90;;;;;;4769094;30;20061;-78
2021/01/29 05:32:21;;;;;;;0.98;0.50;;;7.10;99.90;;;;;;4769357;30;20437;-78
2021/01/29 05:35:04;;;;;;;0.80;0.50;;;7.10;99.90;;;;;;4785504;30;20058;-78
2021/01/29 05:37:53;;;;;;;0.80;0.80;;;7.10;99.90;;;;;;4755212;30;20422;-78
2021/01/29 05:40:52;;;;;;;1.20;0.50;;;7.00;99.90;;;;;;4769138;30;20057;-78
2021/01/29 05:43:41;;;;;;;1.02;0.50;;;7.00;99.90;;;;;;4769398;29;20051;-78
2021/01/29 05:46:26;;;;;;;3.10;0.70;;;7.00;99.90;;;;;;4769947;30;20051;-78
2021/01/29 05:49:18;;;;;;;1.50;0.75;;;6.90;99.90;;;;;;4785225;30;20059;-78
2021/01/29 05:52:24;;;;;;;1.13;1.02;;;6.90;99.90;;;;;;4755007;30;20058;-78
2021/01/29 05:55:26;;;;;;;0.60;0.50;;;6.90;99.90;;;;;;4768946;30;20515;-78
2021/01/29 05:58:28;;;;;;;0.73;0.50;;;6.90;99.90;;;;;;4769916;30;20063;-78
2021/01/29 06:01:38;;;;;;;0.65;0.50;;;6.90;99.90;;;;;;4754838;30;20511;-78
2021/01/29 06:04:31;;;;;;;0.70;0.50;;;6.90;99.90;;;;;;4755072;30;20051;-77
2021/01/29 06:07:35;;;;;;;0.90;0.60;;;7.00;99.90;;;;;;4754702;30;20044;-78
2021/01/29 06:10:12;;;;;;;1.55;0.40;;;7.00;99.90;;;;;;4752275;30;20054;-77
2021/01/29 06:13:16;;;;;;;0.60;0.40;;;6.90;99.90;;;;;;4734851;30;20623;-78
2021/01/29 06:15:56;;;;;;;1.10;0.55;;;6.90;99.90;;;;;;4736306;30;20063;-77
2021/01/29 06:19:08;;;;;;;0.70;0.50;;;6.80;99.90;;;;;;4750645;30;20043;-78
2021/01/29 06:21:55;;;;;;;0.50;0.40;;;6.90;99.90;;;;;;4750658;30;20108;-78
2021/01/29 06:24:38;;;;;;;0.90;0.35;;;6.80;99.90;;;;;;4737169;30;20123;-77
2021/01/29 06:27:41;;;;;;;0.40;0.30;;;6.80;99.90;;;;;;4744319;30;20512;-78
2021/01/29 06:30:32;;;;;;;0.82;0.30;;;6.80;99.90;;;;;;4742606;30;20052;-78
2021/01/29 06:33:45;;;;;;;0.63;0.63;;;6.80;99.90;;;;;;4734929;30;20044;-77
2021/01/29 06:36:38;;;;;;;0.45;0.30;;;6.70;99.90;;;;;;4733967;30;20151;-77
2021/01/29 06:39:18;;;;;;;0.57;0.30;;;6.70;99.90;;;;;;4748778;30;20147;-78
2021/01/29 06:42:14;;;;;;;0.55;0.50;;;6.70;99.90;;;;;;4746527;30;20062;-79
2021/01/29 06:45:07;;;;;;;0.90;0.35;;;6.80;99.90;;;;;;4749629;30;20048;-77
2021/01/29 06:47:42;;;;;;;0.90;0.50;;;6.80;99.90;;;;;;4755506;30;20078;-78
2021/01/29 06:50:55;;;;;;;1.40;0.40;;;6.80;99.90;;;;;;4754033;30;20508;-77
2021/01/29 06:54:15;;;;;;;0.60;0.50;;;6.80;99.90;;;;;;4761777;30;20058;-77
2021/01/29 06:56:58;;;;;;;0.75;0.50;;;6.80;99.90;;;;;;4739199;30;20160;-77
2021/01/29 06:59:45;;;;;;;1.13;0.50;;;6.90;99.90;;;;;;4769742;30;20086;-77
2021/01/29 07:02:36;;;;;;;0.88;0.60;;;6.90;99.90;;;;;;4738415;30;20059;-78
2021/01/29 07:05:40;;;;;;;0.80;0.63;;;6.90;99.90;;;;;;4734654;30;20490;-77
2021/01/29 07:08:29;;;;;;;0.55;0.50;;;6.90;99.90;;;;;;4733931;30;20060;-77
2021/01/29 07:11:38;;;;;;;0.85;0.47;;;7.00;99.90;;;;;;4734255;30;20053;-77
2021/01/29 07:14:55;;;;;;;1.00;0.63;;;7.10;99.90;;;;;;4735035;30;20513;-78
2021/01/29 07:17:34;;;;;;;0.90;0.60;;;7.20;99.90;;;;;;4720441;30;20064;-77
2021/01/29 07:20:39;;;;;;;0.65;0.60;;;7.10;99.90;;;;;;4744442;30;20148;-77
2021/01/29 07:24:20;;;;;;;0.95;0.60;;;7.20;99.90;;;;;;4745777;30;20130;-77
2021/01/29 07:27:30;;;;;;;0.82;0.80;;;7.20;99.90;;;;;;4641771;30;20049;-76
2021/01/29 07:30:15;;;;;;;0.93;0.80;;;7.20;99.90;;;;;;4700434;30;20557;-77
2021/01/29 07:33:01;;;;;;;0.82;0.60;;;7.30;99.90;;;;;;4768754;30;20138;-77
2021/01/29 07:35:53;;;;;;;1.52;0.90;;;7.30;99.90;;;;;;4751776;30;20048;-77
2021/01/29 07:38:37;;;;;;;1.08;0.68;;;7.30;99.90;;;;;;4735722;30;20112;-77
2021/01/29 07:41:28;;;;;;;0.73;0.60;;;7.40;99.90;;;;;;4753038;30;20739;-77
2021/01/29 07:44:26;;;;;;;0.88;0.50;;;7.50;99.90;;;;;;4721054;30;20143;-77
2021/01/29 07:47:03;;;;;;;0.60;0.40;;;7.50;99.90;;;;;;4734866;30;20159;-77
2021/01/29 07:49:54;;;;;;;0.50;0.35;;;7.50;99.90;;;;;;4742652;30;20138;-77
2021/01/29 07:52:33;;;;;;;1.02;0.38;;;7.50;99.90;;;;;;4752827;30;20105;-76
2021/01/29 07:55:18;;;;;;;0.45;0.30;;;7.60;99.90;;;;;;4752534;30;20083;-77
2021/01/29 07:57:50;;;;;;;0.68;0.30;;;7.60;99.90;;;;;;4736799;30;20476;-77
2021/01/29 08:00:40;;;;;;;0.40;0.32;;;7.60;99.90;;;;;;4753321;30;20463;-77
2021/01/29 08:03:36;;;;;;;0.20;0.20;;;7.50;99.90;;;;;;4754021;30;20142;-76
2021/01/29 08:06:19;;;;;;;0.28;0.20;;;7.60;99.90;;;;;;4752943;30;20153;-77
2021/01/29 08:09:11;;;;;;;0.40;0.30;;;7.50;99.90;;;;;;4769667;30;20051;-79
2021/01/29 08:11:48;;;;;;;0.20;0.20;;;7.50;99.90;;;;;;4756527;30;20086;-80
2021/01/29 08:14:46;;;;;;;0.40;0.25;;;7.60;99.90;;;;;;4755124;30;20071;-79
2021/01/29 08:17:56;;;;;;;0.10;0.10;;;7.50;99.90;;;;;;4754372;30;20606;-78
2021/01/29 08:20:51;;;;;;;0.40;0.30;;;7.60;99.90;;;;;;4739495;30;20065;-79
2021/01/29 08:23:35;;;;;;;0.55;0.30;;;7.70;99.90;;;;;;4753490;30;20051;-79
2021/01/29 08:26:24;;;;;;;0.68;0.10;;;7.60;99.90;;;;;;4769265;30;20043;-78
2021/01/29 08:29:15;;;;;;;0.43;0.20;;;7.70;99.90;;;;;;4739431;30;20464;-79
2021/01/29 08:32:21;;;;;;;0.60;0.20;;;7.60;99.90;;;;;;4741660;30;20054;-79
2021/01/29 08:35:24;;;;;;;0.20;0.20;;;7.60;99.90;;;;;;4740140;30;20055;-80
2021/01/29 08:38:21;;;;;;;0.50;0.20;;;7.60;99.90;;;;;;4739115;30;20044;-79
2021/01/29 08:41:30;;;;;;;0.25;0.20;;;7.60;99.90;;;;;;4754084;30;20496;-78
2021/01/29 08:44:11;;;;;;;0.52;0.30;;;7.50;99.90;;;;;;4738834;30;20062;-79
2021/01/29 08:47:07;;;;;;;0.47;0.20;;;7.50;99.90;;;;;;4753193;30;20431;-78
2021/01/29 08:49:53;;;;;;;0.20;0.20;;;7.50;99.90;;;;;;4753124;30;20062;-78
2021/01/29 08:52:45;;;;;;;0.88;0.80;;;7.50;99.90;;;;;;4738062;30;20113;-78
2021/01/29 08:55:39;;;;;;;0.30;0.15;;;7.50;99.90;;;;;;4738224;30;20632;-79
2021/01/29 08:58:15;;;;;;;1.60;0.35;;;7.50;99.90;;;;;;4752617;30;20118;-79
2021/01/29 09:00:46;;;;;;;0.30;0.20;;;7.50;99.90;;;;;;4768691;30;20048;-81
2021/01/29 09:03:27;;;;;;;0.55;0.47;;;7.50;99.90;;;;;;4738614;30;20146;-79
2021/01/29 09:06:14;;;;;;;0.20;0.20;;;7.60;99.90;;;;;;4752573;30;20062;-79
2021/01/29 09:08:41;;;;;;;0.20;0.20;;;7.60;99.90;;;;;;4737516;30;20527;-79
2021/01/29 09:12:01;;;;;;;0.38;0.30;;;7.60;99.90;;;;;;4768592;30;20538;-78
2021/01/29 09:14:42;;;;;;;1.27;0.30;;;7.70;99.90;;;;;;4682303;30;20109;-78
2021/01/29 09:17:23;;;;;;;1.38;0.30;;;7.70;99.90;;;;;;4720775;30;20063;-78
2021/01/29 09:19:56;;;;;;;0.43;0.28;;;7.80;99.90;;;;;;4733960;30;20139;-78
2021/01/29 09:22:51;;;;;;;0.60;0.40;;;7.80;99.90;;;;;;4734948;30;20460;-79
2021/01/29 09:25:31;;;;;;;1.02;0.50;;;8.00;99.90;;;;;;4734951;30;20054;-79
2021/01/29 09:28:02;;;;;;;0.40;0.20;;;8.00;99.90;;;;;;4720684;30;20516;-79
2021/01/29 09:30:36;;;;;;;0.50;0.30;;;8.10;99.90;;;;;;4727609;30;20114;-77
2021/01/29 09:33:22;;;;;;;0.30;0.30;;;8.20;99.90;;;;;;4752386;30;20516;-79
2021/01/29 09:35:51;;;;;;;0.20;0.20;;;8.10;99.90;;;;;;4752246;30;20478;-79
2021/01/29 09:38:24;;;;;;;1.80;0.35;;;8.20;99.90;;;;;;4753040;30;20459;-78
2021/01/29 09:41:22;;;;;;;0.30;0.20;;;8.20;99.90;;;;;;4752155;30;20051;-78
2021/01/29 09:44:10;;;;;;;0.30;0.28;;;8.20;99.90;;;;;;4746639;30;20047;-79
2021/01/29 09:46:42;;;;;;;0.60;0.40;;;8.20;99.90;;;;;;4769807;30;20048;-79
2021/01/29 09:49:19;;;;;;;0.40;0.30;;;8.20;99.90;;;;;;4786047;30;20122;-79
2021/01/29 09:51:46;;;;;;;0.40;0.25;;;8.30;99.90;;;;;;4755244;30;20112;-79
2021/01/29 09:54:53;;;;;;;2.30;0.40;;;8.30;99.90;;;;;;4756145;30;20512;-78
2021/01/29 09:57:32;;;;;;;1.08;0.30;;;8.30;99.90;;;;;;4769922;30;20053;-78
2021/01/29 10:00:13;;;;;;;1.08;0.25;;;8.40;99.90;;;;;;4752119;30;20143;-78
2021/01/29 10:03:13;;;;;;;1.20;0.30;;;8.60;99.90;;;;;;4762069;30;20070;-78
2021/01/29 10:05:54;;;;;;;0.45;0.22;;;8.70;99.90;;;;;;4769918;30;20054;-78
2021/01/29 10:08:40;;;;;;;0.30;0.30;;;8.80;99.90;;;;;;4770118;30;20075;-78
2021/01/29 10:11:20;;;;;;;0.75;0.30;;;8.80;99.90;;;;;;4755790;30;20058;-78
2021/01/29 10:14:07;;;;;;;0.73;0.30;;;8.80;99.90;;;;;;4766136;30;20047;-78
2021/01/29 10:17:03;;;;;;;0.20;0.20;;;8.80;99.90;;;;;;4755840;30;20048;-78
2021/01/29 10:19:44;;;;;;;0.52;0.30;;;8.80;99.90;;;;;;4755613;30;20415;-78
2021/01/29 10:22:40;;;;;;;0.40;0.20;;;8.80;99.90;;;;;;4770152;30;20400;-78
2021/01/29 10:25:26;;;;;;;0.50;0.32;;;8.90;99.90;;;;;;4740623;30;20542;-78
2021/01/29 10:27:55;;;;;;;0.52;0.30;;;8.90;99.90;;;;;;4751748;30;20548;-78
2021/01/29 10:30:59;;;;;;;0.50;0.30;;;9.00;99.90;;;;;;4738804;30;20048;-79
2021/01/29 10:33:34;;;;;;;1.00;0.30;;;9.10;99.90;;;;;;4739377;30;20485;-78
2021/01/29 10:36:18;;;;;;;0.38;0.30;;;9.30;99.90;;;;;;4762831;30;20530;-78
2021/01/29 10:39:18;;;;;;;0.47;0.35;;;9.30;99.90;;;;;;4773630;30;20040;-80
2021/01/29 10:42:11;;;;;;;0.30;0.20;;;9.30;99.90;;;;;;4745531;30;20619;-78
2021/01/29 10:44:38;;;;;;;0.63;0.28;;;9.30;99.90;;;;;;4746960;30;20056;-78
2021/01/29 10:47:21;;;;;;;0.20;0.20;;;9.30;99.90;;;;;;4742293;30;20039;-78
2021/01/29 10:50:08;;;;;;;1.17;0.37;;;9.30;99.90;;;;;;4751677;30;20157;-81
2021/01/29 10:52:55;;;;;;;1.33;0.30;;;9.40;99.90;;;;;;4757709;29;20079;-78
2021/01/29 10:55:35;;;;;;;0.90;0.40;;;9.50;99.90;;;;;;4758560;30;20529;-78
2021/01/29 10:58:35;;;;;;;0.70;0.40;;;9.60;99.90;;;;;;4751682;30;20052;-78
2021/01/29 11:01:20;;;;;;;0.57;0.25;;;9.50;99.90;;;;;;4751419;30;20039;-78
2021/01/29 11:04:13;;;;;;;0.30;0.30;;;9.50;99.90;;;;;;4746180;30;20056;-79
2021/01/29 11:07:30;;;;;;;0.55;0.40;;;9.50;99.90;;;;;;4727113;30;20135;-78
2021/01/29 11:10:05;;;;;;;0.90;0.30;;;9.40;99.90;;;;;;4754667;30;20051;-79
2021/01/29 11:13:06;;;;;;;0.65;0.50;;;9.40;99.90;;;;;;4751809;30;20035;-80
2021/01/29 11:15:39;;;;;;;0.50;0.30;;;9.50;99.90;;;;;;4767141;30;20124;-79
2021/01/29 11:18:37;;;;;;;0.68;0.30;;;9.50;99.90;;;;;;4746296;30;20036;-79
2021/01/29 11:21:24;;;;;;;0.93;0.32;;;9.50;99.90;;;;;;4744915;30;20493;-79
2021/01/29 11:24:22;;;;;;;0.68;0.30;;;9.40;99.90;;;;;;4738379;30;20071;-80
2021/01/29 11:27:15;;;;;;;0.43;0.32;;;9.40;99.90;;;;;;4755888;30;20052;-80
2021/01/29 11:30:04;;;;;;;0.73;0.30;;;9.40;99.90;;;;;;4773794;30;20116;-80
2021/01/29 11:32:34;;;;;;;1.35;0.32;;;9.40;99.90;;;;;;4772921;30;20061;-78
2021/01/29 11:35:14;;;;;;;0.60;0.30;;;9.40;99.90;;;;;;4773336;30;20051;-80
2021/01/29 11:37:55;;;;;;;0.88;0.30;;;9.40;99.90;;;;;;4758459;30;20082;-79
2021/01/29 11:40:57;;;;;;;1.10;0.30;;;9.30;99.90;;;;;;4773969;30;20154;-80
2021/01/29 11:43:54;;;;;;;0.43;0.30;;;9.40;99.90;;;;;;4758303;30;20059;-80
2021/01/29 11:46:46;;;;;;;0.63;0.30;;;9.50;99.90;;;;;;4773308;30;20051;-79
2021/01/29 11:49:27;;;;;;;0.60;0.40;;;9.60;99.90;;;;;;4773320;30;20568;-80
2021/01/29 11:52:23;;;;;;;0.90;0.38;;;9.60;99.90;;;;;;4772947;30;20526;-80
2021/01/29 11:55:18;;;;;;;0.63;0.40;;;9.50;99.90;;;;;;4772687;30;20075;-79
2021/01/29 11:58:07;;;;;;;1.00;0.55;;;9.40;99.90;;;;;;4773218;30;20043;-80
2021/01/29 12:00:56;;;;;;;1.20;0.80;;;9.30;99.90;;;;;;4759423;30;20087;-80
2021/01/29 12:03:33;;;;;;;0.70;0.40;;;9.30;99.90;;;;;;4772786;30;20047;-79
2021/01/29 12:06:30;;;;;;;0.68;0.50;;;9.30;99.90;;;;;;4757948;30;20062;-79
2021/01/29 12:09:14;;;;;;;0.45;0.40;;;9.40;99.90;;;;;;4772688;30;20120;-79
2021/01/29 12:12:07;;;;;;;2.55;0.40;;;9.50;99.90;;;;;;4772523;30;20055;-80
2021/01/29 12:17:33;;;;;;;2.08;0.50;;;9.50;99.90;;;;;;4697222;30;20092;-80
2021/01/29 12:20:08;;;;;;;2.05;1.10;;;9.60;99.90;;;;;;4671329;30;20057;-78
2021/01/29 12:22:42;;;;;;;0.90;0.43;;;9.60;99.90;;;;;;4681120;30;20089;-78
2021/01/29 12:25:27;;;;;;;;;;;9.70;99.90;;;;;;4685382;30;20140;-78
2021/01/29 12:28:25;;;;;;;0.88;0.30;;;9.70;99.90;;;;;;4682062;30;19993;-76
2021/01/29 12:31:23;;;;;;;0.52;0.30;;;9.60;99.90;;;;;;4682517;30;20065;-78
2021/01/29 12:34:04;;;;;;;1.75;0.40;;;9.60;99.90;;;;;;4694829;30;20124;-80
2021/01/29 12:36:37;;;;;;;1.55;0.52;;;9.50;99.90;;;;;;4680516;30;20073;-79
2021/01/29 12:39:23;;;;;;;1.02;0.30;;;9.50;99.90;;;;;;4695281;30;20050;-78
2021/01/29 12:42:04;;;;;;;1.27;0.40;;;9.50;99.90;;;;;;4680961;30;20056;-78
2021/01/29 12:44:43;;;;;;;1.45;0.45;;;9.40;99.90;;;;;;4694989;30;20132;-78
2021/01/29 12:47:21;;;;;;;0.70;0.30;;;9.30;99.90;;;;;;4694919;30;20063;-78
2021/01/29 12:49:56;;;;;;;2.25;1.00;;;9.20;99.90;;;;;;4682179;30;20061;-78
2021/01/29 12:52:38;;;;;;;0.47;0.30;;;9.10;99.90;;;;;;4682347;30;20061;-78
2021/01/29 12:55:31;;;;;;;0.22;0.20;;;8.90;99.90;;;;;;4682478;30;20701;-79
2021/01/29 12:58:09;;;;;;;1.08;0.40;;;8.20;99.90;;;;;;4682646;30;20056;-79
2021/01/29 13:00:41;;;;;;;0.75;0.28;;;7.40;99.90;;;;;;4697920;30;20049;-79
2021/01/29 13:03:31;;;;;;;5.28;1.75;;;7.00;99.90;;;;;;4696528;30;20613;-79
2021/01/29 13:06:21;;;;;;;0.60;0.30;;;6.80;99.90;;;;;;4682465;30;20355;-79
2021/01/29 13:09:34;;;;;;;1.00;0.40;;;6.60;99.90;;;;;;4681602;30;20051;-79
2021/01/29 13:12:17;;;;;;;1.40;0.30;;;6.50;99.90;;;;;;4662725;30;20050;-79
2021/01/29 13:15:08;;;;;;;0.80;0.50;;;6.40;99.90;;;;;;4683124;30;20062;-79
2021/01/29 13:17:46;;;;;;;1.75;0.40;;;6.50;99.90;;;;;;4680361;30;20060;-79
2021/01/29 13:20:26;;;;;;;2.67;0.80;;;6.50;99.90;;;;;;4683788;30;20041;-79
2021/01/29 13:23:16;;;;;;;2.38;0.82;;;6.60;99.90;;;;;;4671413;30;20657;-79
2021/01/29 13:26:11;;;;;;;2.63;0.40;;;6.70;99.90;;;;;;4674250;30;20079;-79
2021/01/29 13:28:56;;;;;;;1.85;0.60;;;6.90;99.90;;;;;;4678353;30;20065;-79
2021/01/29 13:31:35;;;;;;;2.30;0.68;;;6.90;99.90;;;;;;4668603;30;20080;-79
2021/01/29 13:34:18;;;;;;;1.15;0.60;;;7.00;99.90;;;;;;4668509;30;20042;-80
2021/01/29 13:37:04;;;;;;;3.90;0.80;;;7.00;99.90;;;;;;4699444;30;20076;-78
2021/01/29 13:39:41;;;;;;;1.73;0.60;;;7.10;99.90;;;;;;4682078;30;20054;-77
2021/01/29 13:42:28;;;;;;;3.35;0.40;;;7.10;99.90;;;;;;4659625;30;20049;-79
2021/01/29 13:45:16;;;;;;;1.17;0.60;;;7.20;99.90;;;;;;4667140;30;20119;-79
2021/01/29 13:47:51;;;;;;;1.00;0.60;;;7.40;99.90;;;;;;4670502;30;20049;-79
2021/01/29 13:50:29;;;;;;;2.08;0.45;;;7.50;99.90;;;;;;4688635;30;20304;-79
2021/01/29 13:53:08;;;;;;;0.85;0.50;;;7.50;99.90;;;;;;4679620;30;20058;-79
2021/01/29 13:56:13;;;;;;;1.15;0.57;;;7.50;99.90;;;;;;4673653;30;20050;-80
2021/01/29 13:58:52;;;;;;;1.48;0.52;;;7.50;99.90;;;;;;4671105;30;20065;-79
2021/01/29 14:01:45;;;;;;;2.00;0.50;;;7.50;99.90;;;;;;4687555;30;20463;-79
2021/01/29 14:04:22;;;;;;;0.50;0.40;;;7.50;99.90;;;;;;4672408;30;20054;-81
2021/01/29 14:07:19;;;;;;;1.05;0.90;;;7.50;99.90;;;;;;5188901;24;20039;31
2021/01/29 14:09:51;;;;;;;0.88;0.63;;;7.60;99.90;;;;;;4738256;30;20154;-80
2021/01/29 14:12:41;;;;;;;1.73;0.60;;;7.60;99.90;;;;;;4731322;30;20131;-80
2021/01/29 14:15:34;;;;;;;0.30;0.22;;;7.60;99.90;;;;;;4728697;30;20055;-80
2021/01/29 14:18:31;;;;;;;1.83;0.40;;;7.60;99.90;;;;;;4730000;30;20060;-80
2021/01/29 14:21:25;;;;;;;0.95;0.60;;;7.60;99.90;;;;;;4727937;30;20055;-79
2021/01/29 14:24:08;;;;;;;1.88;0.50;;;7.60;99.90;;;;;;4728496;30;20524;-79
2021/01/29 14:26:45;;;;;;;0.63;0.40;;;7.50;99.90;;;;;;4769112;24;20056;-80
2021/01/29 14:29:25;;;;;;;1.05;0.52;;;7.50;99.90;;;;;;4737151;30;20055;-80
2021/01/29 14:32:18;;;;;;;3.60;0.70;;;7.60;99.90;;;;;;4757005;30;20102;-78
2021/01/29 14:38:02;;;;;;;1.40;0.68;;;7.60;99.90;;;;;;4878842;24;20051;-79
2021/01/29 14:40:41;;;;;;;1.23;0.60;;;7.50;99.90;;;;;;4746836;30;20052;-78
2021/01/29 14:43:19;;;;;;;2.08;0.60;;;7.40;99.90;;;;;;4759546;30;20096;-78
2021/01/29 14:46:00;;;;;;;2.53;1.13;;;7.30;99.90;;;;;;4868872;24;20066;-78
2021/01/29 14:48:39;;;;;;;1.83;0.60;;;7.20;99.90;;;;;;4756682;30;20068;-78
2021/01/29 14:51:21;;;;;;;1.33;0.45;;;7.20;99.90;;;;;;4760697;30;20048;-78
2021/01/29 14:54:08;;;;;;;0.98;0.50;;;7.10;99.90;;;;;;4737458;30;20055;-79
2021/01/29 14:56:45;;;;;;;0.90;0.40;;;7.00;99.90;;;;;;4737950;30;20049;-78